sensor_id;sensor_type;location;lat;lon;timestamp;P1;durP1;ratioP1;P2;durP2;ratioP2
22628;SDS011;11481;53.694;9.910;2023-11-19T00:01:05;12.50;;;7.38;;
22628;SDS011;11481;53.694;9.910;2023-11-19T00:03:32;14.82;;;7.50;;
22628;SDS011;11481;53.694;9.910;2023-11-19T00:05:59;11.00;;;6.70;;
22628;SDS011;11481;53.694;9.910;2023-11-19T00:08:26;13.20;;;7.30;;
22628;SDS011;11481;53.694;9.910;2023-11-19T00:10:53;12.40;;;6.75;;
22628;SDS011;11481;53.694;9.910;2023-11-19T00:13:20;9.32;;;5.75;;
22628;SDS011;11481;53.694;9.910;2023-11-19T00:15:46;8.55;;;5.30;;
22628;SDS011;11481;53.694;9.910;2023-11-19T00:18:14;10.20;;;6.07;;
22628;SDS011;11481;53.694;9.910;2023-11-19T00:20:40;7.65;;;5.07;;
22628;SDS011;11481;53.694;9.910;2023-11-19T00:23:10;9.63;;;5.40;;
22628;SDS011;11481;53.694;9.910;2023-11-19T00:25:37;7.10;;;4.95;;
22628;SDS011;11481;53.694;9.910;2023-11-19T00:28:04;8.35;;;5.30;;
22628;SDS011;11481;53.694;9.910;2023-11-19T00:30:31;11.63;;;5.78;;
22628;SDS011;11481;53.694;9.910;2023-11-19T00:32:58;9.75;;;5.40;;
22628;SDS011;11481;53.694;9.910;2023-11-19T00:35:24;7.38;;;4.95;;
22628;SDS011;11481;53.694;9.910;2023-11-19T00:37:51;8.13;;;5.55;;
22628;SDS011;11481;53.694;9.910;2023-11-19T00:40:20;7.60;;;5.13;;
22628;SDS011;11481;53.694;9.910;2023-11-19T00:42:49;8.05;;;4.90;;
22628;SDS011;11481;53.694;9.910;2023-11-19T00:45:16;7.68;;;5.13;;
22628;SDS011;11481;53.694;9.910;2023-11-19T00:47:42;9.10;;;4.55;;
22628;SDS011;11481;53.694;9.910;2023-11-19T00:50:09;7.85;;;4.60;;
22628;SDS011;11481;53.694;9.910;2023-11-19T00:52:37;6.97;;;4.65;;
22628;SDS011;11481;53.694;9.910;2023-11-19T00:55:04;8.80;;;4.75;;
22628;SDS011;11481;53.694;9.910;2023-11-19T00:57:33;5.82;;;3.63;;
22628;SDS011;11481;53.694;9.910;2023-11-19T01:00:00;6.95;;;4.18;;
22628;SDS011;11481;53.694;9.910;2023-11-19T01:02:26;7.43;;;4.00;;
22628;SDS011;11481;53.694;9.910;2023-11-19T01:04:53;6.28;;;3.78;;
22628;SDS011;11481;53.694;9.910;2023-11-19T01:07:20;5.72;;;3.45;;
22628;SDS011;11481;53.694;9.910;2023-11-19T01:09:48;5.32;;;3.42;;
22628;SDS011;11481;53.694;9.910;2023-11-19T01:12:14;5.28;;;3.05;;
22628;SDS011;11481;53.694;9.910;2023-11-19T01:14:41;5.13;;;2.80;;
22628;SDS011;11481;53.694;9.910;2023-11-19T01:17:08;4.15;;;2.92;;
22628;SDS011;11481;53.694;9.910;2023-11-19T01:19:35;5.57;;;2.80;;
22628;SDS011;11481;53.694;9.910;2023-11-19T01:22:02;6.15;;;3.55;;
22628;SDS011;11481;53.694;9.910;2023-11-19T01:24:29;4.07;;;2.70;;
22628;SDS011;11481;53.694;9.910;2023-11-19T01:26:57;4.25;;;2.90;;
22628;SDS011;11481;53.694;9.910;2023-11-19T01:29:25;5.45;;;3.05;;
22628;SDS011;11481;53.694;9.910;2023-11-19T01:31:52;4.78;;;2.58;;
22628;SDS011;11481;53.694;9.910;2023-11-19T01:34:19;5.25;;;2.75;;
22628;SDS011;11481;53.694;9.910;2023-11-19T01:36:46;3.90;;;2.50;;
22628;SDS011;11481;53.694;9.910;2023-11-19T01:39:15;4.60;;;2.75;;
22628;SDS011;11481;53.694;9.910;2023-11-19T01:41:46;3.55;;;2.28;;
22628;SDS011;11481;53.694;9.910;2023-11-19T01:44:12;4.25;;;2.47;;
22628;SDS011;11481;53.694;9.910;2023-11-19T01:46:43;6.07;;;2.80;;
22628;SDS011;11481;53.694;9.910;2023-11-19T01:49:11;3.50;;;2.22;;
22628;SDS011;11481;53.694;9.910;2023-11-19T01:51:40;3.03;;;2.08;;
22628;SDS011;11481;53.694;9.910;2023-11-19T01:54:08;3.67;;;2.28;;
22628;SDS011;11481;53.694;9.910;2023-11-19T01:56:35;3.42;;;2.33;;
22628;SDS011;11481;53.694;9.910;2023-11-19T01:59:06;4.35;;;2.38;;
22628;SDS011;11481;53.694;9.910;2023-11-19T02:01:35;3.05;;;2.15;;
22628;SDS011;11481;53.694;9.910;2023-11-19T02:04:06;2.83;;;2.05;;
22628;SDS011;11481;53.694;9.910;2023-11-19T02:06:36;3.38;;;2.20;;
22628;SDS011;11481;53.694;9.910;2023-11-19T02:09:06;2.53;;;1.70;;
22628;SDS011;11481;53.694;9.910;2023-11-19T02:11:34;3.10;;;1.98;;
22628;SDS011;11481;53.694;9.910;2023-11-19T02:14:01;3.28;;;2.20;;
22628;SDS011;11481;53.694;9.910;2023-11-19T02:16:30;3.33;;;2.45;;
22628;SDS011;11481;53.694;9.910;2023-11-19T02:18:56;3.30;;;1.88;;
22628;SDS011;11481;53.694;9.910;2023-11-19T02:21:23;2.78;;;1.90;;
22628;SDS011;11481;53.694;9.910;2023-11-19T02:23:50;3.88;;;2.00;;
22628;SDS011;11481;53.694;9.910;2023-11-19T02:26:25;2.40;;;1.80;;
22628;SDS011;11481;53.694;9.910;2023-11-19T02:28:59;2.33;;;1.58;;
22628;SDS011;11481;53.694;9.910;2023-11-19T02:31:26;2.38;;;1.67;;
22628;SDS011;11481;53.694;9.910;2023-11-19T02:33:53;2.92;;;1.77;;
22628;SDS011;11481;53.694;9.910;2023-11-19T02:36:21;3.13;;;1.75;;
22628;SDS011;11481;53.694;9.910;2023-11-19T02:38:48;2.50;;;1.70;;
22628;SDS011;11481;53.694;9.910;2023-11-19T02:41:15;2.50;;;1.80;;
22628;SDS011;11481;53.694;9.910;2023-11-19T02:43:41;2.55;;;1.60;;
22628;SDS011;11481;53.694;9.910;2023-11-19T02:46:08;2.08;;;1.45;;
22628;SDS011;11481;53.694;9.910;2023-11-19T02:48:38;2.85;;;1.70;;
22628;SDS011;11481;53.694;9.910;2023-11-19T02:51:05;1.77;;;1.30;;
22628;SDS011;11481;53.694;9.910;2023-11-19T02:53:35;2.15;;;1.30;;
22628;SDS011;11481;53.694;9.910;2023-11-19T02:56:06;3.25;;;1.63;;
22628;SDS011;11481;53.694;9.910;2023-11-19T02:58:52;2.60;;;1.95;;
22628;SDS011;11481;53.694;9.910;2023-11-19T03:01:23;2.92;;;1.90;;
22628;SDS011;11481;53.694;9.910;2023-11-19T03:03:57;3.30;;;1.92;;
22628;SDS011;11481;53.694;9.910;2023-11-19T03:06:25;4.15;;;1.98;;
22628;SDS011;11481;53.694;9.910;2023-11-19T03:08:52;3.00;;;1.70;;
22628;SDS011;11481;53.694;9.910;2023-11-19T03:11:18;3.05;;;2.15;;
22628;SDS011;11481;53.694;9.910;2023-11-19T03:13:45;2.90;;;2.00;;
22628;SDS011;11481;53.694;9.910;2023-11-19T03:16:13;2.97;;;1.88;;
22628;SDS011;11481;53.694;9.910;2023-11-19T03:18:39;3.03;;;1.98;;
22628;SDS011;11481;53.694;9.910;2023-11-19T03:21:06;3.78;;;2.55;;
22628;SDS011;11481;53.694;9.910;2023-11-19T03:23:34;4.65;;;2.60;;
22628;SDS011;11481;53.694;9.910;2023-11-19T03:26:02;3.25;;;2.70;;
22628;SDS011;11481;53.694;9.910;2023-11-19T03:28:31;3.80;;;2.47;;
22628;SDS011;11481;53.694;9.910;2023-11-19T03:30:58;3.95;;;2.80;;
22628;SDS011;11481;53.694;9.910;2023-11-19T03:33:25;4.60;;;3.00;;
22628;SDS011;11481;53.694;9.910;2023-11-19T03:35:54;5.03;;;3.13;;
22628;SDS011;11481;53.694;9.910;2023-11-19T03:38:23;5.13;;;3.08;;
22628;SDS011;11481;53.694;9.910;2023-11-19T03:40:51;4.45;;;2.78;;
22628;SDS011;11481;53.694;9.910;2023-11-19T03:43:18;4.00;;;2.78;;
22628;SDS011;11481;53.694;9.910;2023-11-19T03:45:45;5.10;;;3.45;;
22628;SDS011;11481;53.694;9.910;2023-11-19T03:48:13;5.68;;;3.58;;
22628;SDS011;11481;53.694;9.910;2023-11-19T03:50:42;6.55;;;3.80;;
22628;SDS011;11481;53.694;9.910;2023-11-19T03:53:09;4.97;;;3.33;;
22628;SDS011;11481;53.694;9.910;2023-11-19T03:55:37;5.10;;;3.80;;
22628;SDS011;11481;53.694;9.910;2023-11-19T03:58:03;3.78;;;3.20;;
22628;SDS011;11481;53.694;9.910;2023-11-19T04:00:30;5.13;;;3.15;;
22628;SDS011;11481;53.694;9.910;2023-11-19T04:02:57;5.38;;;4.22;;
22628;SDS011;11481;53.694;9.910;2023-11-19T04:05:24;5.30;;;3.85;;
22628;SDS011;11481;53.694;9.910;2023-11-19T04:07:51;6.38;;;4.35;;
22628;SDS011;11481;53.694;9.910;2023-11-19T04:10:17;6.75;;;4.60;;
22628;SDS011;11481;53.694;9.910;2023-11-19T04:12:44;5.50;;;3.83;;
22628;SDS011;11481;53.694;9.910;2023-11-19T04:15:11;8.00;;;4.57;;
22628;SDS011;11481;53.694;9.910;2023-11-19T04:17:39;6.32;;;4.80;;
22628;SDS011;11481;53.694;9.910;2023-11-19T04:20:06;7.55;;;4.45;;
22628;SDS011;11481;53.694;9.910;2023-11-19T04:22:37;5.75;;;4.35;;
22628;SDS011;11481;53.694;9.910;2023-11-19T04:25:03;8.15;;;4.90;;
22628;SDS011;11481;53.694;9.910;2023-11-19T04:27:30;8.05;;;4.47;;
22628;SDS011;11481;53.694;9.910;2023-11-19T04:29:57;6.45;;;4.45;;
22628;SDS011;11481;53.694;9.910;2023-11-19T04:32:24;6.65;;;4.53;;
22628;SDS011;11481;53.694;9.910;2023-11-19T04:34:52;9.50;;;4.97;;
22628;SDS011;11481;53.694;9.910;2023-11-19T04:37:19;8.93;;;5.57;;
22628;SDS011;11481;53.694;9.910;2023-11-19T04:39:46;10.80;;;6.07;;
22628;SDS011;11481;53.694;9.910;2023-11-19T04:42:13;8.48;;;5.80;;
22628;SDS011;11481;53.694;9.910;2023-11-19T04:44:43;10.77;;;6.25;;
22628;SDS011;11481;53.694;9.910;2023-11-19T04:47:10;7.80;;;5.63;;
22628;SDS011;11481;53.694;9.910;2023-11-19T04:49:39;10.38;;;6.95;;
22628;SDS011;11481;53.694;9.910;2023-11-19T04:52:09;10.95;;;6.80;;
22628;SDS011;11481;53.694;9.910;2023-11-19T04:54:35;10.70;;;6.93;;
22628;SDS011;11481;53.694;9.910;2023-11-19T04:57:06;12.55;;;6.93;;
22628;SDS011;11481;53.694;9.910;2023-11-19T04:59:34;10.35;;;7.03;;
22628;SDS011;11481;53.694;9.910;2023-11-19T05:02:00;12.45;;;7.95;;
22628;SDS011;11481;53.694;9.910;2023-11-19T05:04:27;9.75;;;7.32;;
22628;SDS011;11481;53.694;9.910;2023-11-19T05:06:54;15.20;;;8.27;;
22628;SDS011;11481;53.694;9.910;2023-11-19T05:09:20;14.95;;;8.65;;
22628;SDS011;11481;53.694;9.910;2023-11-19T05:11:47;16.67;;;8.95;;
22628;SDS011;11481;53.694;9.910;2023-11-19T05:14:17;13.20;;;9.07;;
22628;SDS011;11481;53.694;9.910;2023-11-19T05:16:47;12.82;;;9.02;;
22628;SDS011;11481;53.694;9.910;2023-11-19T05:19:14;15.70;;;9.90;;
22628;SDS011;11481;53.694;9.910;2023-11-19T05:21:42;15.90;;;10.65;;
22628;SDS011;11481;53.694;9.910;2023-11-19T05:24:09;22.33;;;10.18;;
22628;SDS011;11481;53.694;9.910;2023-11-19T05:26:38;17.52;;;10.40;;
22628;SDS011;11481;53.694;9.910;2023-11-19T05:29:05;16.80;;;9.85;;
22628;SDS011;11481;53.694;9.910;2023-11-19T05:31:32;16.45;;;10.40;;
22628;SDS011;11481;53.694;9.910;2023-11-19T05:34:02;20.27;;;10.50;;
22628;SDS011;11481;53.694;9.910;2023-11-19T05:36:29;21.70;;;11.60;;
22628;SDS011;11481;53.694;9.910;2023-11-19T05:38:55;17.92;;;10.85;;
22628;SDS011;11481;53.694;9.910;2023-11-19T05:41:22;19.45;;;11.15;;
22628;SDS011;11481;53.694;9.910;2023-11-19T05:43:49;19.00;;;11.13;;
22628;SDS011;11481;53.694;9.910;2023-11-19T05:46:15;25.83;;;13.10;;
22628;SDS011;11481;53.694;9.910;2023-11-19T05:48:45;20.35;;;12.13;;
22628;SDS011;11481;53.694;9.910;2023-11-19T05:51:13;22.48;;;12.70;;
22628;SDS011;11481;53.694;9.910;2023-11-19T05:53:41;25.33;;;12.98;;
22628;SDS011;11481;53.694;9.910;2023-11-19T05:56:08;23.92;;;14.93;;
22628;SDS011;11481;53.694;9.910;2023-11-19T05:58:36;38.35;;;16.85;;
22628;SDS011;11481;53.694;9.910;2023-11-19T06:01:03;29.08;;;15.48;;
22628;SDS011;11481;53.694;9.910;2023-11-19T06:03:31;32.15;;;15.27;;
22628;SDS011;11481;53.694;9.910;2023-11-19T06:05:58;32.92;;;15.90;;
22628;SDS011;11481;53.694;9.910;2023-11-19T06:08:25;36.10;;;16.83;;
22628;SDS011;11481;53.694;9.910;2023-11-19T06:10:53;36.97;;;16.55;;
22628;SDS011;11481;53.694;9.910;2023-11-19T06:13:19;31.70;;;15.32;;
22628;SDS011;11481;53.694;9.910;2023-11-19T06:15:50;30.42;;;15.93;;
22628;SDS011;11481;53.694;9.910;2023-11-19T06:18:17;32.83;;;15.55;;
22628;SDS011;11481;53.694;9.910;2023-11-19T06:20:46;30.95;;;15.25;;
22628;SDS011;11481;53.694;9.910;2023-11-19T06:23:13;41.45;;;16.08;;
22628;SDS011;11481;53.694;9.910;2023-11-19T06:25:39;29.35;;;15.07;;
22628;SDS011;11481;53.694;9.910;2023-11-19T06:28:06;31.75;;;13.98;;
22628;SDS011;11481;53.694;9.910;2023-11-19T06:30:33;42.60;;;13.57;;
22628;SDS011;11481;53.694;9.910;2023-11-19T06:32:59;34.35;;;14.27;;
22628;SDS011;11481;53.694;9.910;2023-11-19T06:35:26;28.17;;;13.15;;
22628;SDS011;11481;53.694;9.910;2023-11-19T06:37:55;35.17;;;12.40;;
22628;SDS011;11481;53.694;9.910;2023-11-19T06:40:22;27.17;;;12.63;;
22628;SDS011;11481;53.694;9.910;2023-11-19T06:42:49;38.80;;;12.80;;
22628;SDS011;11481;53.694;9.910;2023-11-19T06:45:16;29.17;;;11.65;;
22628;SDS011;11481;53.694;9.910;2023-11-19T06:47:43;30.98;;;10.90;;
22628;SDS011;11481;53.694;9.910;2023-11-19T06:50:09;30.95;;;10.93;;
22628;SDS011;11481;53.694;9.910;2023-11-19T06:52:38;28.67;;;9.40;;
22628;SDS011;11481;53.694;9.910;2023-11-19T06:55:06;21.83;;;9.52;;
22628;SDS011;11481;53.694;9.910;2023-11-19T06:57:34;33.78;;;9.93;;
22628;SDS011;11481;53.694;9.910;2023-11-19T07:00:01;23.30;;;8.98;;
22628;SDS011;11481;53.694;9.910;2023-11-19T07:02:28;38.15;;;10.57;;
22628;SDS011;11481;53.694;9.910;2023-11-19T07:04:55;37.05;;;8.27;;
22628;SDS011;11481;53.694;9.910;2023-11-19T07:07:22;26.75;;;7.93;;
22628;SDS011;11481;53.694;9.910;2023-11-19T07:09:48;24.17;;;7.60;;
22628;SDS011;11481;53.694;9.910;2023-11-19T07:12:16;29.45;;;7.55;;
22628;SDS011;11481;53.694;9.910;2023-11-19T07:14:42;34.97;;;7.55;;
22628;SDS011;11481;53.694;9.910;2023-11-19T07:17:09;21.70;;;6.88;;
22628;SDS011;11481;53.694;9.910;2023-11-19T07:19:36;26.67;;;6.05;;
22628;SDS011;11481;53.694;9.910;2023-11-19T07:22:04;33.08;;;6.82;;
22628;SDS011;11481;53.694;9.910;2023-11-19T07:24:32;27.00;;;6.28;;
22628;SDS011;11481;53.694;9.910;2023-11-19T07:26:59;19.95;;;6.10;;
22628;SDS011;11481;53.694;9.910;2023-11-19T07:29:26;19.10;;;5.50;;
22628;SDS011;11481;53.694;9.910;2023-11-19T07:31:55;21.75;;;5.93;;
22628;SDS011;11481;53.694;9.910;2023-11-19T07:34:22;17.40;;;4.53;;
22628;SDS011;11481;53.694;9.910;2023-11-19T07:36:49;24.35;;;5.57;;
22628;SDS011;11481;53.694;9.910;2023-11-19T07:39:16;26.45;;;6.18;;
22628;SDS011;11481;53.694;9.910;2023-11-19T07:41:43;20.92;;;4.72;;
22628;SDS011;11481;53.694;9.910;2023-11-19T07:44:10;34.03;;;5.03;;
22628;SDS011;11481;53.694;9.910;2023-11-19T07:46:37;26.38;;;4.47;;
22628;SDS011;11481;53.694;9.910;2023-11-19T07:49:04;23.88;;;4.63;;
22628;SDS011;11481;53.694;9.910;2023-11-19T07:51:30;24.83;;;3.92;;
22628;SDS011;11481;53.694;9.910;2023-11-19T07:53:57;25.10;;;5.22;;
22628;SDS011;11481;53.694;9.910;2023-11-19T07:56:24;31.73;;;4.85;;
22628;SDS011;11481;53.694;9.910;2023-11-19T07:58:51;27.02;;;4.53;;
22628;SDS011;11481;53.694;9.910;2023-11-19T08:01:18;25.08;;;4.72;;
22628;SDS011;11481;53.694;9.910;2023-11-19T08:03:45;26.48;;;4.68;;
22628;SDS011;11481;53.694;9.910;2023-11-19T08:06:15;33.88;;;4.32;;
22628;SDS011;11481;53.694;9.910;2023-11-19T08:08:41;24.73;;;4.10;;
22628;SDS011;11481;53.694;9.910;2023-11-19T08:11:10;28.50;;;4.43;;
22628;SDS011;11481;53.694;9.910;2023-11-19T08:13:36;24.90;;;4.95;;
22628;SDS011;11481;53.694;9.910;2023-11-19T08:16:03;26.27;;;4.55;;
22628;SDS011;11481;53.694;9.910;2023-11-19T08:18:30;28.80;;;4.75;;
22628;SDS011;11481;53.694;9.910;2023-11-19T08:20:57;23.52;;;4.18;;
22628;SDS011;11481;53.694;9.910;2023-11-19T08:23:25;24.70;;;4.43;;
22628;SDS011;11481;53.694;9.910;2023-11-19T08:25:52;26.00;;;3.97;;
22628;SDS011;11481;53.694;9.910;2023-11-19T08:28:19;26.52;;;4.82;;
22628;SDS011;11481;53.694;9.910;2023-11-19T08:30:45;34.22;;;4.47;;
22628;SDS011;11481;53.694;9.910;2023-11-19T08:33:12;24.23;;;4.45;;
22628;SDS011;11481;53.694;9.910;2023-11-19T08:35:39;26.20;;;4.10;;
22628;SDS011;11481;53.694;9.910;2023-11-19T08:38:06;28.88;;;4.63;;
22628;SDS011;11481;53.694;9.910;2023-11-19T08:40:34;28.85;;;4.53;;
22628;SDS011;11481;53.694;9.910;2023-11-19T08:43:00;16.30;;;3.25;;
22628;SDS011;11481;53.694;9.910;2023-11-19T08:45:27;20.58;;;4.15;;
22628;SDS011;11481;53.694;9.910;2023-11-19T08:47:54;24.80;;;4.55;;
22628;SDS011;11481;53.694;9.910;2023-11-19T08:50:21;20.35;;;3.55;;
22628;SDS011;11481;53.694;9.910;2023-11-19T08:52:48;28.63;;;4.20;;
22628;SDS011;11481;53.694;9.910;2023-11-19T08:55:14;20.45;;;4.25;;
22628;SDS011;11481;53.694;9.910;2023-11-19T08:57:41;21.65;;;3.88;;
22628;SDS011;11481;53.694;9.910;2023-11-19T09:00:08;33.50;;;4.18;;
22628;SDS011;11481;53.694;9.910;2023-11-19T09:02:35;19.50;;;3.55;;
22628;SDS011;11481;53.694;9.910;2023-11-19T09:05:04;29.27;;;4.50;;
22628;SDS011;11481;53.694;9.910;2023-11-19T09:07:33;36.90;;;4.60;;
22628;SDS011;11481;53.694;9.910;2023-11-19T09:10:00;27.70;;;4.20;;
22628;SDS011;11481;53.694;9.910;2023-11-19T09:12:27;21.75;;;4.72;;
22628;SDS011;11481;53.694;9.910;2023-11-19T09:14:54;24.40;;;4.05;;
22628;SDS011;11481;53.694;9.910;2023-11-19T09:17:21;25.10;;;3.75;;
22628;SDS011;11481;53.694;9.910;2023-11-19T09:19:47;24.77;;;3.72;;
22628;SDS011;11481;53.694;9.910;2023-11-19T09:22:14;20.10;;;4.20;;
22628;SDS011;11481;53.694;9.910;2023-11-19T09:24:41;28.52;;;4.22;;
22628;SDS011;11481;53.694;9.910;2023-11-19T09:27:08;26.55;;;4.35;;
22628;SDS011;11481;53.694;9.910;2023-11-19T09:29:35;21.35;;;4.10;;
22628;SDS011;11481;53.694;9.910;2023-11-19T09:32:02;25.20;;;4.13;;
22628;SDS011;11481;53.694;9.910;2023-11-19T09:34:31;27.13;;;4.50;;
22628;SDS011;11481;53.694;9.910;2023-11-19T09:36:58;20.02;;;3.72;;
22628;SDS011;11481;53.694;9.910;2023-11-19T09:39:24;24.65;;;3.92;;
22628;SDS011;11481;53.694;9.910;2023-11-19T09:41:51;25.88;;;5.00;;
22628;SDS011;11481;53.694;9.910;2023-11-19T09:44:18;25.40;;;3.97;;
22628;SDS011;11481;53.694;9.910;2023-11-19T09:46:46;25.02;;;4.45;;
22628;SDS011;11481;53.694;9.910;2023-11-19T09:49:15;16.98;;;3.92;;
22628;SDS011;11481;53.694;9.910;2023-11-19T09:52:01;31.33;;;4.07;;
22628;SDS011;11481;53.694;9.910;2023-11-19T09:54:29;23.90;;;4.22;;
22628;SDS011;11481;53.694;9.910;2023-11-19T09:56:56;19.35;;;4.38;;
22628;SDS011;11481;53.694;9.910;2023-11-19T09:59:29;17.77;;;3.58;;
22628;SDS011;11481;53.694;9.910;2023-11-19T10:01:57;26.55;;;5.15;;
22628;SDS011;11481;53.694;9.910;2023-11-19T10:04:24;33.30;;;5.15;;
22628;SDS011;11481;53.694;9.910;2023-11-19T10:06:55;23.35;;;3.78;;
22628;SDS011;11481;53.694;9.910;2023-11-19T10:09:22;25.85;;;4.82;;
22628;SDS011;11481;53.694;9.910;2023-11-19T10:11:49;28.30;;;4.93;;
22628;SDS011;11481;53.694;9.910;2023-11-19T10:14:16;24.17;;;4.38;;
22628;SDS011;11481;53.694;9.910;2023-11-19T10:16:45;26.40;;;5.35;;
22628;SDS011;11481;53.694;9.910;2023-11-19T10:19:18;23.73;;;3.95;;
22628;SDS011;11481;53.694;9.910;2023-11-19T10:21:46;22.77;;;4.05;;
22628;SDS011;11481;53.694;9.910;2023-11-19T10:24:13;27.33;;;4.47;;
22628;SDS011;11481;53.694;9.910;2023-11-19T10:26:56;27.50;;;5.07;;
22628;SDS011;11481;53.694;9.910;2023-11-19T10:29:23;25.10;;;3.72;;
22628;SDS011;11481;53.694;9.910;2023-11-19T10:31:56;21.52;;;3.63;;
22628;SDS011;11481;53.694;9.910;2023-11-19T10:34:44;21.52;;;4.25;;
22628;SDS011;11481;53.694;9.910;2023-11-19T10:37:32;25.80;;;3.55;;
22628;SDS011;11481;53.694;9.910;2023-11-19T10:39:59;24.05;;;4.03;;
22628;SDS011;11481;53.694;9.910;2023-11-19T10:42:26;20.88;;;4.00;;
22628;SDS011;11481;53.694;9.910;2023-11-19T10:44:53;28.25;;;3.80;;
22628;SDS011;11481;53.694;9.910;2023-11-19T10:47:19;25.13;;;3.53;;
22628;SDS011;11481;53.694;9.910;2023-11-19T10:50:04;23.58;;;4.07;;
22628;SDS011;11481;53.694;9.910;2023-11-19T10:52:32;21.80;;;3.63;;
22628;SDS011;11481;53.694;9.910;2023-11-19T10:55:00;24.75;;;4.50;;
22628;SDS011;11481;53.694;9.910;2023-11-19T10:57:29;17.70;;;3.08;;
22628;SDS011;11481;53.694;9.910;2023-11-19T11:00:00;20.70;;;4.18;;
22628;SDS011;11481;53.694;9.910;2023-11-19T11:02:36;24.38;;;3.50;;
22628;SDS011;11481;53.694;9.910;2023-11-19T11:05:08;22.40;;;3.83;;
22628;SDS011;11481;53.694;9.910;2023-11-19T11:07:38;24.13;;;4.15;;
22628;SDS011;11481;53.694;9.910;2023-11-19T11:10:07;24.17;;;4.13;;
22628;SDS011;11481;53.694;9.910;2023-11-19T11:12:36;26.73;;;4.00;;
22628;SDS011;11481;53.694;9.910;2023-11-19T11:15:08;19.33;;;3.38;;
22628;SDS011;11481;53.694;9.910;2023-11-19T11:17:38;30.52;;;4.30;;
22628;SDS011;11481;53.694;9.910;2023-11-19T11:20:07;30.00;;;4.60;;
22628;SDS011;11481;53.694;9.910;2023-11-19T11:22:40;22.38;;;4.05;;
22628;SDS011;11481;53.694;9.910;2023-11-19T11:25:56;25.52;;;4.07;;
22628;SDS011;11481;53.694;9.910;2023-11-19T11:29:01;21.20;;;4.20;;
22628;SDS011;11481;53.694;9.910;2023-11-19T11:31:34;30.38;;;4.18;;
22628;SDS011;11481;53.694;9.910;2023-11-19T11:39:35;26.55;;;4.25;;
22628;SDS011;11481;53.694;9.910;2023-11-19T11:44:58;25.45;;;3.83;;
22628;SDS011;11481;53.694;9.910;2023-11-19T11:50:13;26.05;;;4.07;;
22628;SDS011;11481;53.694;9.910;2023-11-19T11:55:27;22.30;;;3.85;;
22628;SDS011;11481;53.694;9.910;2023-11-19T11:57:59;21.92;;;3.63;;
22628;SDS011;11481;53.694;9.910;2023-11-19T12:00:27;18.08;;;3.38;;
22628;SDS011;11481;53.694;9.910;2023-11-19T12:02:54;27.30;;;4.20;;
22628;SDS011;11481;53.694;9.910;2023-11-19T12:05:22;21.90;;;3.97;;
22628;SDS011;11481;53.694;9.910;2023-11-19T12:07:56;18.05;;;3.97;;
22628;SDS011;11481;53.694;9.910;2023-11-19T12:10:26;29.65;;;4.65;;
22628;SDS011;11481;53.694;9.910;2023-11-19T12:12:58;24.10;;;4.25;;
22628;SDS011;11481;53.694;9.910;2023-11-19T12:15:26;27.75;;;7.00;;
22628;SDS011;11481;53.694;9.910;2023-11-19T12:17:54;25.65;;;4.45;;
22628;SDS011;11481;53.694;9.910;2023-11-19T12:20:25;24.40;;;4.20;;
22628;SDS011;11481;53.694;9.910;2023-11-19T12:22:55;25.42;;;4.57;;
22628;SDS011;11481;53.694;9.910;2023-11-19T12:25:22;29.38;;;3.92;;
22628;SDS011;11481;53.694;9.910;2023-11-19T12:27:50;32.65;;;3.92;;
22628;SDS011;11481;53.694;9.910;2023-11-19T12:30:21;32.42;;;4.88;;
22628;SDS011;11481;53.694;9.910;2023-11-19T12:32:49;19.35;;;4.07;;
22628;SDS011;11481;53.694;9.910;2023-11-19T12:35:16;25.80;;;3.65;;
22628;SDS011;11481;53.694;9.910;2023-11-19T12:37:43;25.52;;;5.07;;
22628;SDS011;11481;53.694;9.910;2023-11-19T12:40:18;21.58;;;4.13;;
22628;SDS011;11481;53.694;9.910;2023-11-19T12:42:49;31.30;;;4.50;;
22628;SDS011;11481;53.694;9.910;2023-11-19T12:45:17;29.40;;;3.92;;
22628;SDS011;11481;53.694;9.910;2023-11-19T12:47:46;32.53;;;4.78;;
22628;SDS011;11481;53.694;9.910;2023-11-19T12:50:14;23.83;;;3.67;;
22628;SDS011;11481;53.694;9.910;2023-11-19T12:52:43;25.65;;;4.32;;
22628;SDS011;11481;53.694;9.910;2023-11-19T12:55:27;21.95;;;4.00;;
22628;SDS011;11481;53.694;9.910;2023-11-19T12:57:56;20.00;;;4.05;;
22628;SDS011;11481;53.694;9.910;2023-11-19T13:00:25;20.45;;;3.92;;
22628;SDS011;11481;53.694;9.910;2023-11-19T13:02:53;21.65;;;4.03;;
22628;SDS011;11481;53.694;9.910;2023-11-19T13:08:12;24.42;;;3.95;;
22628;SDS011;11481;53.694;9.910;2023-11-19T13:13:15;27.15;;;3.72;;
22628;SDS011;11481;53.694;9.910;2023-11-19T13:15:42;30.85;;;4.20;;
22628;SDS011;11481;53.694;9.910;2023-11-19T13:18:12;22.60;;;3.75;;
22628;SDS011;11481;53.694;9.910;2023-11-19T13:20:40;26.15;;;3.75;;
22628;SDS011;11481;53.694;9.910;2023-11-19T13:23:06;21.67;;;4.20;;
22628;SDS011;11481;53.694;9.910;2023-11-19T13:25:34;17.52;;;3.47;;
22628;SDS011;11481;53.694;9.910;2023-11-19T13:28:00;17.60;;;3.35;;
22628;SDS011;11481;53.694;9.910;2023-11-19T13:30:28;24.20;;;3.40;;
22628;SDS011;11481;53.694;9.910;2023-11-19T13:32:55;24.75;;;3.92;;
22628;SDS011;11481;53.694;9.910;2023-11-19T13:35:22;15.45;;;3.55;;
22628;SDS011;11481;53.694;9.910;2023-11-19T13:37:49;29.48;;;4.00;;
22628;SDS011;11481;53.694;9.910;2023-11-19T13:40:17;27.20;;;4.55;;
22628;SDS011;11481;53.694;9.910;2023-11-19T13:42:45;23.52;;;4.28;;
22628;SDS011;11481;53.694;9.910;2023-11-19T13:45:12;28.30;;;3.92;;
22628;SDS011;11481;53.694;9.910;2023-11-19T13:47:40;24.10;;;4.18;;
22628;SDS011;11481;53.694;9.910;2023-11-19T13:50:12;23.50;;;4.13;;
22628;SDS011;11481;53.694;9.910;2023-11-19T13:52:40;21.83;;;4.35;;
22628;SDS011;11481;53.694;9.910;2023-11-19T13:55:08;24.90;;;3.97;;
22628;SDS011;11481;53.694;9.910;2023-11-19T13:57:36;27.60;;;4.13;;
22628;SDS011;11481;53.694;9.910;2023-11-19T14:00:04;22.85;;;4.07;;
22628;SDS011;11481;53.694;9.910;2023-11-19T14:02:33;25.05;;;3.67;;
22628;SDS011;11481;53.694;9.910;2023-11-19T14:05:00;24.20;;;3.33;;
22628;SDS011;11481;53.694;9.910;2023-11-19T14:07:27;19.92;;;4.10;;
22628;SDS011;11481;53.694;9.910;2023-11-19T14:09:54;22.60;;;4.03;;
22628;SDS011;11481;53.694;9.910;2023-11-19T14:12:21;24.15;;;3.38;;
22628;SDS011;11481;53.694;9.910;2023-11-19T14:14:48;28.33;;;4.63;;
22628;SDS011;11481;53.694;9.910;2023-11-19T14:17:15;23.73;;;3.70;;
22628;SDS011;11481;53.694;9.910;2023-11-19T14:19:42;25.75;;;4.07;;
22628;SDS011;11481;53.694;9.910;2023-11-19T14:22:09;19.90;;;4.00;;
22628;SDS011;11481;53.694;9.910;2023-11-19T14:24:36;27.88;;;3.95;;
22628;SDS011;11481;53.694;9.910;2023-11-19T14:27:04;24.60;;;4.13;;
22628;SDS011;11481;53.694;9.910;2023-11-19T14:29:30;28.88;;;4.22;;
22628;SDS011;11481;53.694;9.910;2023-11-19T14:31:57;20.88;;;3.63;;
22628;SDS011;11481;53.694;9.910;2023-11-19T14:34:25;13.43;;;2.70;;
22628;SDS011;11481;53.694;9.910;2023-11-19T14:36:52;15.82;;;2.35;;
22628;SDS011;11481;53.694;9.910;2023-11-19T14:39:20;11.93;;;1.88;;
22628;SDS011;11481;53.694;9.910;2023-11-19T14:41:46;7.32;;;1.98;;
22628;SDS011;11481;53.694;9.910;2023-11-19T14:44:13;9.25;;;1.20;;
22628;SDS011;11481;53.694;9.910;2023-11-19T14:46:40;6.90;;;1.35;;
22628;SDS011;11481;53.694;9.910;2023-11-19T14:49:07;8.52;;;1.38;;
22628;SDS011;11481;53.694;9.910;2023-11-19T14:51:37;6.95;;;1.33;;
22628;SDS011;11481;53.694;9.910;2023-11-19T14:54:04;5.68;;;1.48;;
22628;SDS011;11481;53.694;9.910;2023-11-19T14:56:32;4.47;;;1.30;;
22628;SDS011;11481;53.694;9.910;2023-11-19T14:58:58;7.05;;;1.27;;
22628;SDS011;11481;53.694;9.910;2023-11-19T15:01:25;10.88;;;3.03;;
22628;SDS011;11481;53.694;9.910;2023-11-19T15:03:53;9.45;;;3.05;;